ADDS METAR Data INFO
IDs: Format: Raw Decoded Include TAF

Data at: 0312 UTC 22 Apr 2018

KBKD 220255Z AUTO 03004KT 10SM CLR 13/09 A3009 RMK AO2 T01250091
KBKD 220235Z AUTO 02007KT 10SM CLR 13/09 A3009 RMK AO2 T01290091
KBKD 220215Z AUTO 01009KT 10SM CLR 13/09 A3008 RMK AO2 T01330092
KBKD 220155Z AUTO 36006KT 10SM CLR 14/09 A3007 RMK AO2 T01360090
KBKD 220135Z AUTO 01008KT 10SM CLR 14/09 A3005 RMK AO2 T01400090
KBKD 220115Z AUTO 01006G16KT 10SM SCT022 BKN027 15/09 A3005 RMK AO2 T01450090
KBKD 220055Z AUTO 35010KT 10SM BKN020 BKN027 BKN100 15/09 A3005 RMK AO2 T01480093
KBKD 220035Z AUTO 36008G19KT 10SM OVC022 15/09 A3004 RMK AO2 T01500092
KBKD 220015Z AUTO 36012G23KT 10SM OVC020 15/09 A3002 RMK AO2 T01520092
KBKD 212355Z AUTO 35014G21KT 10SM OVC018 16/10 A3001 RMK AO2 T01550097 10285 20155
KBKD 212335Z AUTO 01011KT 10SM OVC016 16/10 A2999 RMK AO2 T01560101
KBKD 212315Z AUTO 01016G25KT 10SM OVC016 16/10 A2998 RMK AO2 LTG DSNT E T01570099
KBKD 212255Z AUTO 36014G24KT 10SM OVC016 16/10 A2997 RMK AO2 T01580104
KBKD 212235Z AUTO 01019G26KT 7SM BKN016 17/11 A2995 RMK AO2 LTG DSNT SE T01670106
KBKD 212215Z AUTO 34018G28KT 10SM BKN018 19/12 A2993 RMK AO2 T01880115
KBKD 212155Z AUTO 34021G28KT 7SM BKN020 21/13 A2991 RMK AO2 LTG DSNT E T02050127
KBKD 212135Z AUTO 36021G28KT 5SM HZ SCT022 22/14 A2990 RMK AO2 LTG DSNT NE AND E T02190138
KBKD 212115Z AUTO 35016G27KT 4SM HZ CLR 24/14 A2988 RMK AO2 T02390144
KBKD 212055Z AUTO 34020G24KT 7SM CLR 26/11 A2986 RMK AO2 LTG DSNT NE T02600106
KBKD 212035Z AUTO 35019G24KT 5SM HZ SCT100 25/13 A2985 RMK AO2 LTG DSNT NE T02530130
KBKD 212015Z AUTO 35019G29KT 5SM HZ SCT100 26/13 A2983 RMK AO2 T02580130
KBKD 211955Z AUTO 17007G16KT 140V210 5SM HZ SCT110 27/12 A2981 RMK AO2 T02680124
KBKD 211935Z AUTO 22006KT 10SM SCT055 BKN065 BKN110 28/11 A2982 RMK AO2 T02760112
KBKD 211915Z AUTO 19005KT 10SM BKN065 OVC100 25/11 A2984 RMK AO2 LTG DSNT E T02510114
KBKD 211855Z AUTO 19010G14KT 180V250 10SM SCT050 BKN060 BKN090 26/11 A2985 RMK AO2 T02590113
KBKD 211835Z AUTO 21009G19KT 190V250 10SM SCT040 SCT047 BKN060 26/12 A2986 RMK AO2 T02570118
KBKD 211815Z AUTO 17014G18KT 10SM SCT046 SCT055 25/12 A2987 RMK AO2 T02460123
KBKD 211755Z AUTO 20014G20KT 10SM SCT026 SCT034 24/13 A2989 RMK AO2 T02370133 10237 20140
KBKD 211735Z AUTO 19017G23KT 10SM BKN024 BKN032 22/13 A2989 RMK AO2 LTG DSNT NE T02240133
KBKD 211715Z AUTO 20016G22KT 10SM SCT022 BKN028 BKN040 22/14 A2990 RMK AO2 LTG DSNT NE T02200136
KBKD 211655Z AUTO 20015G24KT 10SM BKN018 OVC030 21/14 A2991 RMK AO2 T02060135
KBKD 211635Z AUTO 19015KT 10SM OVC016 20/13 A2992 RMK AO2 LTG DSNT N AND NE T01960134
KBKD 211615Z AUTO 21012G17KT 10SM OVC018 18/13 A2994 RMK AO2 LTG DSNT NE T01830131
KBKD 211555Z AUTO 21012G18KT 10SM OVC018 19/13 A2995 RMK AO2 LTG DSNT NW T01850130
KBKD 211535Z AUTO 20014G22KT 10SM OVC018 18/13 A2993 RMK AO2 LTG DSNT NW T01840130
KBKD 211515Z AUTO 20012G17KT 10SM OVC014 18/13 A2993 RMK AO2 LTG DSNT NE T01800127
KBKD 211455Z AUTO 18010G14KT 10SM OVC012 17/12 A2993 RMK AO2 T01660120
KBKD 211435Z AUTO 16013G16KT 10SM VCTS OVC012 16/12 A2992 RMK AO2 LTG DSNT NW T01600117
KBKD 211415Z AUTO 16009G15KT 10SM BKN012 OVC022 16/12 A2993 RMK AO2 LTG DSNT NE AND NW T01550115
KBKD 211355Z AUTO 15012G15KT 10SM OVC012 15/11 A2993 RMK AO2 LTG DSNT NE T01490114
KBKD 211335Z AUTO 16009KT 10SM OVC012 15/11 A2995 RMK AO2 T01460111
KBKD 211315Z AUTO 16006KT 10SM OVC012 15/11 A2995 RMK AO2 T01450110
KBKD 211255Z AUTO 16005KT 10SM OVC012 15/11 A2996 RMK AO2 T01450108
KBKD 211235Z AUTO 15004KT 10SM OVC012 14/11 A2996 RMK AO2 T01420106
KBKD 211215Z AUTO 19004KT 10SM OVC012 14/11 A2996 RMK AO2 LTG DSNT N AND NE T01410105
KBKD 211155Z AUTO 17008KT 10SM OVC012 14/10 A2995 RMK AO2 LTG DSNT N T01400102 10166 20140
KBKD 211135Z AUTO 19005KT 10SM OVC014 14/10 A2995 RMK AO2 LTG DSNT NE T01400101
KBKD 211115Z AUTO 16005KT 10SM OVC014 14/10 A2994 RMK AO2 T01400097
KBKD 211055Z AUTO 17009KT 10SM OVC016 14/10 A2994 RMK AO2 LTG DSNT N AND NE T01400095
KBKD 211035Z AUTO 15011G15KT 10SM SCT016 SCT047 OVC075 14/09 A2993 RMK AO2 LTG DSNT N T01400091
KBKD 211015Z AUTO 15017G22KT 10SM SCT049 BKN075 OVC085 14/09 A2992 RMK AO2 LTG DSNT N AND NW T01400087
KBKD 210955Z AUTO 15014G20KT 10SM SCT049 OVC065 14/08 A2994 RMK AO2 LTG DSNT N T01420083
KBKD 210935Z AUTO 15013G20KT 10SM SCT043 BKN075 OVC080 15/08 A2994 RMK AO2 T01450081
KBKD 210915Z AUTO 15015G23KT 10SM BKN045 OVC075 15/08 A2995 RMK AO2 LTG DSNT NW T01460080
KBKD 210855Z AUTO 14015G22KT 10SM SCT030 OVC047 15/08 A2996 RMK AO2 LTG DSNT W T01480076
KBKD 210835Z AUTO 14015G21KT 10SM BKN030 BKN037 OVC060 15/07 A2996 RMK AO2 T01530071
KBKD 210815Z AUTO 15013G21KT 10SM OVC028 16/08 A2998 RMK AO2 T01560075
KBKD 210755Z AUTO 15011G17KT 10SM OVC028 16/07 A3000 RMK AO2 T01570072
KBKD 210735Z AUTO 15011G18KT 10SM BKN028 OVC035 16/07 A3001 RMK AO2 T01580069
KBKD 210715Z AUTO 15012G20KT 10SM BKN037 OVC048 16/07 A3001 RMK AO2 T01600065
KBKD 210655Z AUTO 14012G20KT 10SM SCT028 BKN035 OVC050 16/07 A3000 RMK AO2 T01600065
KBKD 210635Z AUTO 14012G17KT 10SM BKN028 OVC034 16/07 A3002 RMK AO2 T01630065
KBKD 210615Z AUTO 15013G18KT 10SM BKN030 OVC036 17/07 A3003 RMK AO2 T01650065
KBKD 210555Z AUTO 15014G19KT 10SM OVC034 17/06 A3001 RMK AO2 LTG DSNT NE T01660062 10215 20166 402330103
KBKD 210535Z AUTO 15013G18KT 10SM BKN037 OVC043 17/06 A3001 RMK AO2 T01700060
KBKD 210515Z AUTO 16013G23KT 10SM OVC046 17/06 A2999 RMK AO2 T01720058
KBKD 210455Z AUTO 14014G20KT 10SM OVC050 18/06 A2998 RMK AO2 T01750056
KBKD 210435Z AUTO 13017G22KT 10SM OVC048 18/06 A2997 RMK AO2 T01790057
KBKD 210415Z AUTO 13010G22KT 10SM OVC046 18/06 A2998 RMK AO2 T01820056
KBKD 210355Z AUTO 14014G20KT 10SM OVC048 19/06 A2999 RMK AO2 T01850055
KBKD 210335Z AUTO 14014G23KT 10SM OVC048 19/05 A2998 RMK AO2 T01860052
KBKD 210315Z AUTO 14017G22KT 10SM OVC048 19/05 A2998 RMK AO2 T01880051
KBKD 210255Z AUTO 14012G22KT 10SM OVC048 19/05 A2999 RMK AO2 T01900050
KBKD 210235Z AUTO 15016G22KT 10SM OVC050 19/05 A2999 RMK AO2 T01910050
KBKD 210215Z AUTO 14017G25KT 10SM OVC050 20/05 A2998 RMK AO2 T01950047
KBKD 210155Z AUTO 14017G28KT 10SM OVC055 20/05 A2997 RMK AO2 T01960047
KBKD 210135Z AUTO 15017G27KT 10SM OVC065 20/05 A2996 RMK AO2 T02000046
KBKD 210115Z AUTO 15017G26KT 10SM OVC065 20/05 A2996 RMK AO2 T02020045
KBKD 210055Z AUTO 14016G25KT 10SM OVC065 21/04 A2996 RMK AO2 T02050043
KBKD 210035Z AUTO 14017G26KT 10SM OVC065 21/04 A2996 RMK AO2 T02060042
KBKD 210015Z AUTO 15015G24KT 10SM BKN065 21/04 A2997 RMK AO2 T02110043
KBKD 202355Z AUTO 15017G27KT 10SM SCT065 22/04 A2998 RMK AO2 T02160043 10233 20200
KBKD 202335Z AUTO 14019G26KT 10SM SCT065 22/04 A2998 RMK AO2 T02190042
KBKD 202315Z AUTO 14017G27KT 10SM SCT065 22/04 A2999 RMK AO2 T02210040
KBKD 202255Z AUTO 14019G28KT 10SM BKN065 22/04 A2999 RMK AO2 LTG DSNT N T02230038
KBKD 202235Z AUTO 14011G22KT 10SM BKN065 22/04 A3000 RMK AO2 T02200038
KBKD 202215Z AUTO 15017G25KT 10SM CLR 23/04 A3001 RMK AO2 T02290038
KBKD 202155Z AUTO 14014G25KT 100V160 10SM CLR 23/04 A3003 RMK AO2 T02260041
KBKD 202135Z AUTO 14018G24KT 10SM CLR 23/04 A3004 RMK AO2 T02270038
KBKD 202115Z AUTO 15015G21KT 110V170 10SM CLR 23/04 A3004 RMK AO2 T02280040
KBKD 202055Z AUTO 15016G20KT 10SM SCT050 23/04 A3006 RMK AO2 T02260037
KBKD 202035Z AUTO 14016G23KT 10SM SCT050 22/04 A3007 RMK AO2 LTG DSNT N T02240036
KBKD 202015Z AUTO 12016G20KT 10SM SCT075 22/04 A3008 RMK AO2 T02220038
KBKD 201955Z AUTO 13016G22KT 10SM OVC075 22/04 A3009 RMK AO2 T02210037
KBKD 201935Z AUTO 16013G21KT 10SM BKN075 21/03 A3011 RMK AO2 T02050033
KBKD 201915Z AUTO 15011G19KT 10SM BKN085 22/04 A3012 RMK AO2 T02180040
KBKD 201855Z AUTO 13016G24KT 10SM SCT085 21/04 A3013 RMK AO2 LTG DSNT NW T02140040
KBKD 201835Z AUTO 12017G24KT 10SM SCT085 21/04 A3014 RMK AO2 T02090037
KBKD 201815Z AUTO 11017G24KT 10SM BKN085 21/04 A3015 RMK AO2 T02080038
KBKD 201755Z AUTO 14016G27KT 10SM SCT085 20/04 A3017 RMK AO2 T02040035 10205 20103
KBKD 201735Z AUTO 12015G26KT 10SM SCT085 20/04 A3017 RMK AO2 T01990037
KBKD 201715Z AUTO 12016G25KT 10SM OVC085 20/04 A3018 RMK AO2 T01980037
KBKD 201655Z AUTO 12017G25KT 10SM BKN085 19/04 A3019 RMK AO2 T01890035
KBKD 201635Z AUTO 13019G27KT 10SM CLR 19/04 A3020 RMK AO2 LTG DSNT NW T01890036
KBKD 201615Z AUTO 12015G20KT 10SM CLR 19/04 A3021 RMK AO2 T01860035
KBKD 201555Z AUTO 12016G22KT 10SM CLR 18/03 A3022 RMK AO2 T01810034
KBKD 201535Z AUTO 12018G22KT 10SM CLR 18/03 A3022 RMK AO2 T01770032
KBKD 201515Z AUTO 14015G23KT 10SM CLR 17/03 A3022 RMK AO2 T01700032